METAR Data
IDs: Format: Raw Decoded Include TAF

Data at: 1254 UTC 09 Dec 2019

KSZY 091235Z AUTO 18012G18KT 10SM FEW015 BKN032 OVC050 15/13 A2981 RMK A01
KSZY 091215Z AUTO 17011KT 10SM FEW015 BKN037 OVC055 15/13 A2981 RMK A01
KSZY 091155Z AUTO 18011G22KT 150V220 10SM SCT014 SCT021 OVC044 15/13 A2981 RMK A01
KSZY 091135Z AUTO 18011G17KT 160V220 10SM BKN013 BKN018 OVC046 15/13 A2983 RMK A01
KSZY 091115Z AUTO 18010G24KT 10SM BKN012 OVC018 15/13 A2983 RMK A01
KSZY 091055Z AUTO 18011G18KT 10SM BKN013 OVC020 15/13 A2983 RMK A01
KSZY 091035Z AUTO 19011G17KT 10SM OVC013 15/13 A2984 RMK A01
KSZY 091015Z AUTO 18010KT 10SM OVC014 15/13 A2985 RMK A01
KSZY 090955Z AUTO 18009KT 10SM BKN013 OVC019 15/13 A2986 RMK A01
KSZY 090935Z AUTO 18008KT 160V220 10SM BKN014 OVC020 15/13 A2987 RMK A01
KSZY 090915Z AUTO 17009KT 10SM BKN014 OVC021 15/13 A2986 RMK A01
KSZY 090855Z AUTO 19008G14KT 160V230 10SM BKN014 OVC022 15/13 A2988 RMK A01
KSZY 090835Z AUTO 19007KT 10SM OVC013 15/13 A2988 RMK A01
KSZY 090815Z AUTO 18010G16KT 150V220 10SM OVC015 15/13 A2988 RMK A01
KSZY 090755Z AUTO 18008G16KT 170V230 10SM OVC015 15/13 A2988 RMK A01
KSZY 090735Z AUTO 17012G19KT 150V210 10SM OVC016 15/13 A2987 RMK A01
KSZY 090715Z AUTO 17012G19KT 10SM OVC017 15/12 A2987 RMK A01
KSZY 090655Z AUTO 17012G18KT 10SM OVC017 15/12 A2989 RMK A01
KSZY 090635Z AUTO 18008G16KT 10SM OVC017 15/12 A2989 RMK A01
KSZY 090615Z AUTO 17010G17KT 10SM OVC017 15/12 A2990 RMK A01
KSZY 090555Z AUTO 17011G18KT 10SM OVC017 15/12 A2991 RMK A01
KSZY 090535Z AUTO 18010G16KT 10SM OVC018 15/12 A2993 RMK A01
KSZY 090515Z AUTO 17007KT 10SM OVC019 15/11 A2994 RMK A01
KSZY 090455Z AUTO 17010KT 10SM OVC020 15/11 A2993 RMK A01
KSZY 090435Z AUTO 17009KT 10SM SCT021 BKN032 BKN040 15/11 A2993 RMK A01
KSZY 090415Z AUTO 17009G14KT 10SM BKN031 BKN040 BKN045 15/11 A2993 RMK A01
KSZY 090355Z AUTO 18008KT 10SM BKN030 OVC037 15/11 A2995 RMK A01
KSZY 090335Z AUTO 18007G13KT 10SM BKN029 OVC034 15/10 A2995 RMK A01
KSZY 090315Z AUTO 18007KT 10SM BKN029 OVC035 14/10 A2995 RMK A01
KSZY 090255Z AUTO 17007KT 10SM OVC028 14/10 A2995 RMK A01
KSZY 090235Z AUTO 17008G16KT 10SM OVC026 14/10 A2994 RMK A01
KSZY 090215Z AUTO 17009G15KT 10SM OVC024 14/10 A2995 RMK A01
KSZY 090155Z AUTO 16010G17KT 10SM SCT023 BKN034 BKN041 14/10 A2993 RMK A01
KSZY 090135Z AUTO 15010KT 10SM FEW039 14/10 A2994 RMK A01
KSZY 090115Z AUTO 15010KT 10SM FEW034 FEW040 13/10 A2995 RMK A01
KSZY 090055Z AUTO 15007KT 10SM BKN030 BKN037 13/10 A2996 RMK A01
KSZY 090035Z AUTO 15006KT 10SM SCT029 OVC035 14/10 A2998 RMK A01
KSZY 090015Z AUTO 15005KT 10SM BKN034 OVC044 14/10 A2999 RMK A01
KSZY 082355Z AUTO 16005KT 10SM FEW031 OVC044 13/10 A2999 RMK A01
KSZY 082335Z AUTO 16004KT 10SM SCT031 OVC047 14/10 A2999 RMK A01
KSZY 082315Z AUTO 17005KT 10SM BKN029 BKN039 OVC048 14/10 A3000 RMK A01
KSZY 082255Z AUTO 18004KT 10SM OVC028 14/10 A3000 RMK A01
KSZY 082235Z AUTO 00000KT 10SM OVC026 14/10 A3001 RMK A01
KSZY 082215Z AUTO 17004KT 10SM OVC025 14/10 A2999 RMK A01
KSZY 082155Z AUTO 17007KT 10SM OVC025 14/09 A3000 RMK A01
KSZY 082135Z AUTO 17008KT 150V210 10SM OVC022 15/09 A3000 RMK A01
KSZY 082115Z AUTO 16011KT 10SM OVC023 15/10 A3001 RMK A01
KSZY 082055Z AUTO 17010KT 10SM OVC024 15/10 A3002 RMK A01
KSZY 082035Z AUTO 18008KT 10SM BKN025 OVC033 15/10 A3003 RMK A01
KSZY 082015Z AUTO VRB05G11KT 10SM OVC024 15/10 A3004 RMK A01
KSZY 081955Z AUTO 16008KT 10SM OVC024 15/10 A3003 RMK A01
KSZY 081935Z AUTO 17009KT 150V210 10SM OVC023 15/10 A3005 RMK A01
KSZY 081915Z AUTO 17008KT 10SM OVC024 15/09 A3005 RMK A01
KSZY 081855Z AUTO 18009KT 150V220 10SM BKN024 OVC031 15/09 A3005 RMK A01
KSZY 081835Z AUTO 17013KT 10SM BKN026 OVC037 15/09 A3006 RMK A01
KSZY 081815Z AUTO 19010G16KT 160V240 10SM BKN026 OVC030 15/09 A3008 RMK A01
KSZY 081755Z AUTO 20008G19KT 160V250 10SM OVC030 15/09 A3009 RMK A01
KSZY 081735Z AUTO 18011KT 10SM BKN030 BKN055 15/09 A3008 RMK A01
KSZY 081715Z AUTO 18008G14KT 150V210 10SM FEW027 FEW038 SCT050 16/09 A3010 RMK A01
KSZY 081655Z AUTO 18010G17KT 10SM BKN050 15/09 A3011 RMK A01
KSZY 081635Z AUTO 19012KT 160V220 10SM CLR 15/09 A3013 RMK A01
KSZY 081615Z AUTO 17007G14KT 10SM CLR 14/08 A3014 RMK A01
KSZY 081555Z AUTO 16009G18KT 10SM SCT048 13/08 A3014 RMK A01
KSZY 081535Z AUTO 17009KT 10SM BKN048 11/08 A3015 RMK A01
KSZY 081515Z AUTO 16011KT 10SM OVC049 11/07 A3015 RMK A01
KSZY 081455Z AUTO 16009KT 10SM OVC049 10/07 A3016 RMK A01
KSZY 081435Z AUTO 16010KT 10SM SCT048 10/07 A3016 RMK A01
KSZY 081415Z AUTO 15007KT 7SM FEW046 09/07 A3015 RMK A01
KSZY 081355Z AUTO 16007KT 10SM SCT047 08/06 A3016 RMK A01
KSZY 081335Z AUTO 16006KT 10SM BKN049 08/06 A3016 RMK A01
KSZY 081315Z AUTO 16006KT 10SM OVC049 08/06 A3015 RMK A01
KSZY 081255Z AUTO 16006KT 10SM BKN048 07/06 A3016 RMK A01
KSZY 081235Z AUTO 16006KT 10SM BKN045 07/06 A3016 RMK A01
KSZY 081215Z AUTO 15005KT 10SM FEW029 OVC045 07/06 A3015 RMK A01
KSZY 081155Z AUTO 15005KT 10SM FEW029 BKN043 06/05 A3016 RMK A01
KSZY 081135Z AUTO 15005KT 10SM FEW044 06/05 A3015 RMK A01
KSZY 081115Z AUTO 15006KT 10SM SCT043 07/05 A3015 RMK A01
KSZY 081055Z AUTO 15005KT 10SM BKN045 07/05 A3015 RMK A01
KSZY 081035Z AUTO 14005KT 9SM OVC045 06/05 A3015 RMK A01
KSZY 081015Z AUTO 00000KT 7SM BKN043 05/04 A3016 RMK A01
KSZY 080955Z AUTO 00000KT 8SM CLR 06/05 A3016 RMK A01
KSZY 080935Z AUTO 00000KT 9SM CLR 06/05 A3015 RMK A01
KSZY 080915Z AUTO 14005KT 9SM CLR 06/05 A3015 RMK A01
KSZY 080855Z AUTO 14004KT 9SM CLR 06/05 A3015 RMK A01
KSZY 080835Z AUTO 14006KT 10SM CLR 06/05 A3015 RMK A01
KSZY 080815Z AUTO 13005KT 8SM FEW041 06/05 A3016 RMK A01
KSZY 080755Z AUTO 13004KT 9SM SCT040 06/05 A3016 RMK A01
KSZY 080735Z AUTO 13004KT 8SM SCT040 05/04 A3017 RMK A01
KSZY 080715Z AUTO 00000KT 10SM CLR 05/05 A3017 RMK A01
KSZY 080655Z AUTO 11004KT 10SM CLR 06/05 A3017 RMK A01
KSZY 080635Z AUTO 11004KT 10SM CLR 05/05 A3018 RMK A01
KSZY 080615Z AUTO 11004KT 9SM CLR 04/04 A3019 RMK A01
KSZY 080555Z AUTO 10004KT 10SM CLR 05/05 A3020 RMK A01
KSZY 080535Z AUTO 10004KT 7SM CLR 05/04 A3021 RMK A01
KSZY 080515Z AUTO 00000KT 6SM BR CLR 05/04 A3022 RMK A01
KSZY 080455Z AUTO 00000KT 6SM BR CLR 04/04 A3022 RMK A01
KSZY 080435Z AUTO 00000KT 10SM CLR 06/05 A3021 RMK A01
KSZY 080415Z AUTO 00000KT 10SM CLR 06/05 A3021 RMK A01
KSZY 080355Z AUTO 07003KT 10SM CLR 07/05 A3022 RMK A01
KSZY 080335Z AUTO 07003KT 10SM FEW029 07/05 A3022 RMK A01
KSZY 080315Z AUTO 06003KT 10SM FEW031 07/06 A3023 RMK A01
KSZY 080255Z AUTO 06004KT 10SM CLR 06/06 A3023 RMK A01
KSZY 080235Z AUTO 00000KT 10SM CLR 06/06 A3023 RMK A01
KSZY 080215Z AUTO 00000KT 10SM CLR 06/05 A3023 RMK A01
KSZY 080155Z AUTO 06004KT 10SM FEW031 07/06 A3023 RMK A01
KSZY 080135Z AUTO 00000KT 10SM FEW035 06/06 A3024 RMK A01
KSZY 080115Z AUTO 00000KT 7SM FEW036 06/05 A3024 RMK A01
KSZY 080055Z AUTO 00000KT 10SM CLR 06/06 A3024 RMK A01